John F Kennedy International Airport
KJFK : now visible

Airfield :











YOU CAN JOIN US ON...

 
LOGIN :

Register | Disclaimer

   EN    FR    IT 

 









Legend :    VFR   Marginal VFR   IFR   Intensive IFR   Very Intensive IFR
Visi :
Ceiling :
>= 8 km
>= 3000ft
5 to 8 km
1000 to 3000 ft
1500m to 5 km
500 to 1000 ft
800 to 1500m
200 to 500 ft
< 800m
< 200 ft
Symbols :   Thunderstorms  Fog  Heavy snow  Heavy precipitations  Wind > 20 kt






- Airport Elevation : 13 ft
- IATA code : JFK


KJFK - John F Kennedy International

CURRENT METAR :
  • 120251Z 29020G28KT 10SM CLR 01/M09 A3042 RMK AO2 PK WND 30031/0215 SLP301 T00061089 53018

EXPIRED METARs :
  • 120151Z 29020G28KT 10SM FEW250 01/M08 A3040 RMK AO2 PK WND 27028/0142 SLP295 T00111083
  • 120051Z 27015KT 10SM FEW250 02/M07 A3039 RMK AO2 PK WND 26026/0007 SLP289 T00221067

TAF KJFK
Valid from the 12 at 03:00 until the 13 at 06:00 UTC


120241Z 1203/1306 30016G24KT P6SM SKC
FM120800 33010KT P6SM SKC
FM121500 35006KT P6SM FEW250
FM121900 VRB04KT P6SM SCT250
FM122100 14005KT P6SM FEW080 BKN250
FM130400 14005KT P6SM SCT030 BKN250



MET'MAP, your aeronautical weather chart ! - Copyright ORBIFLY December 2007 - Disclaimer

ORBIFLY MET'MAP TEAM :

Programming & Development : Alexandra Zaïnal
Concept & original design : Baudouin d'Aumeries
Assistance for programming : Marc-Olivier Méhu
Technical & hardware support : Manuel Goepfert

Contact : metmap@orbifly.com




SOURCES & CREDITS :

   NOAA       Earth
Advisory